Time;durP1;ratioP1;P1;durP2;ratioP2;P2;SDS_P1;SDS_P2;PMS_P1;PMS_P2;Temp;Humidity;BMP_temperature;BMP_pressure;BME280_temperature;BME280_humidity;BME280_pressure;Samples;Min_cycle;Max_cycle;Signal;HPM_P1;HPM_P2
2022/05/27 00:01:01;;;;;;;;;;;;;;;;;;5087994;28;19920;-64
2022/05/27 00:03:27;;;;;;;;;;;;;;;;;;5105476;28;20001;-63
2022/05/27 00:05:53;;;;;;;;;;;;;;;;;;5108527;28;19920;-62
2022/05/27 00:08:19;;;;;;;;;;;;;;;;;;5103012;28;19950;-64
2022/05/27 00:10:45;;;;;;;;;;;;;;;;;;5103649;28;19970;-64
2022/05/27 00:13:11;;;;;;;;;;;;;;;;;;5103710;28;19920;-63
2022/05/27 00:15:37;;;;;;;;;;;;;;;;;;5103002;28;19959;-63
2022/05/27 00:18:03;;;;;;;;;;;;;;;;;;5104004;28;20375;-64
2022/05/27 00:20:29;;;;;;;;;;;;;;;;;;5112326;28;19983;-64
2022/05/27 00:22:55;;;;;;;;;;;;;;;;;;5125248;28;19920;-64
2022/05/27 00:25:21;;;;;;;;;;;;;;;;;;5113214;28;19923;-63
2022/05/27 00:27:47;;;;;;;;;;;;;;;;;;5110141;28;19919;-63
2022/05/27 00:30:13;;;;;;;;;;;;;;;;;;5128913;28;19966;-64
2022/05/27 00:32:39;;;;;;;;;;;;;;;;;;5109806;28;19969;-64
2022/05/27 00:35:05;;;;;;;;;;;;;;;;;;5128551;28;19919;-64
2022/05/27 00:37:31;;;;;;;;;;;;;;;;;;5128386;28;19919;-64
2022/05/27 00:39:57;;;;;;;;;;;;;;;;;;5128439;28;20378;-64
2022/05/27 00:42:23;;;;;;;;;;;;;;;;;;5109771;28;19919;-64
2022/05/27 00:44:49;;;;;;;;;;;;;;;;;;5128278;28;19926;-63
2022/05/27 00:47:15;;;;;;;;;;;;;;;;;;5110019;28;19930;-64
2022/05/27 00:49:41;;;;;;;;;;;;;;;;;;5128284;28;19920;-64
2022/05/27 00:52:07;;;;;;;;;;;;;;;;;;5110107;28;19926;-64
2022/05/27 00:54:33;;;;;;;;;;;;;;;;;;5128109;28;19930;-63
2022/05/27 00:56:59;;;;;;;;;;;;;;;;;;5127595;28;20375;-65
2022/05/27 00:59:25;;;;;;;;;;;;;;;;;;5128023;28;19920;-64
2022/05/27 01:01:51;;;;;;;;;;;;;;;;;;5128126;28;19920;-64
2022/05/27 01:04:17;;;;;;;;;;;;;;;;;;5127817;28;19927;-63
2022/05/27 01:06:43;;;;;;;;;;;;;;;;;;5127788;28;19953;-63
2022/05/27 01:09:09;;;;;;;;;;;;;;;;;;5090415;28;20402;-63
2022/05/27 01:11:35;;;;;;;;;;;;;;;;;;5087263;28;19927;-63
2022/05/27 01:14:01;;;;;;;;;;;;;;;;;;5086976;28;20003;-63
2022/05/27 01:16:27;;;;;;;;;;;;;;;;;;5087034;28;19928;-63
2022/05/27 01:21:38;;;;;;;;;;;;;;;;;;5102389;28;19928;-63
2022/05/27 01:24:04;;;;;;;;;;;;;;;;;;5086638;28;19924;-64
2022/05/27 01:26:30;;;;;;;;;;;;;;;;;;5087010;28;19920;-64
2022/05/27 01:28:56;;;;;;;;;;;;;;;;;;5086557;28;19927;-64
2022/05/27 01:31:22;;;;;;;;;;;;;;;;;;5102285;28;20303;-64
2022/05/27 01:33:48;;;;;;;;;;;;;;;;;;5086530;28;19920;-64
2022/05/27 01:36:14;;;;;;;;;;;;;;;;;;5101848;28;19921;-64
2022/05/27 01:38:40;;;;;;;;;;;;;;;;;;5102137;28;19920;-63
2022/05/27 01:41:06;;;;;;;;;;;;;;;;;;5086401;28;19966;-63
2022/05/27 01:43:32;;;;;;;;;;;;;;;;;;5086097;28;19920;-64
2022/05/27 01:45:58;;;;;;;;;;;;;;;;;;5086413;28;19927;-64
2022/05/27 01:48:24;;;;;;;;;;;;;;;;;;5102060;28;19927;-63
2022/05/27 01:50:50;;;;;;;;;;;;;;;;;;5086314;28;20375;-63
2022/05/27 01:53:16;;;;;;;;;;;;;;;;;;5086193;28;19926;-63
2022/05/27 01:55:42;;;;;;;;;;;;;;;;;;5086281;28;19920;-64
2022/05/27 01:58:08;;;;;;;;;;;;;;;;;;5085971;28;19924;-63
2022/05/27 02:00:34;;;;;;;;;;;;;;;;;;5101588;28;19920;-63
2022/05/27 02:03:00;;;;;;;;;;;;;;;;;;5085904;28;19928;-63
2022/05/27 02:05:28;;;;;;;;;;;;;;;;;;5086103;28;20023;-63
2022/05/27 02:07:54;;;;;;;;;;;;;;;;;;5085186;28;19980;-63
2022/05/27 02:10:20;;;;;;;;;;;;;;;;;;5085628;28;19920;-63
2022/05/27 02:12:46;;;;;;;;;;;;;;;;;;5085475;28;19967;-63
2022/05/27 02:15:12;;;;;;;;;;;;;;;;;;5067740;28;19920;-63
2022/05/27 02:17:38;;;;;;;;;;;;;;;;;;5085911;28;19924;-63
2022/05/27 02:20:04;;;;;;;;;;;;;;;;;;5085642;28;19921;-64
2022/05/27 02:22:30;;;;;;;;;;;;;;;;;;5085595;28;19927;-63
2022/05/27 02:24:56;;;;;;;;;;;;;;;;;;5100995;28;19987;-63
2022/05/27 02:27:22;;;;;;;;;;;;;;;;;;5085283;28;19920;-63
2022/05/27 02:29:48;;;;;;;;;;;;;;;;;;5085512;28;19920;-63
2022/05/27 02:32:14;;;;;;;;;;;;;;;;;;5085529;28;19928;-63
2022/05/27 02:37:25;;;;;;;;;;;;;;;;;;5085279;28;20011;-62
2022/05/27 02:39:51;;;;;;;;;;;;;;;;;;5085351;28;19924;-64
2022/05/27 02:42:17;;;;;;;;;;;;;;;;;;5085219;28;19920;-64
2022/05/27 02:44:43;;;;;;;;;;;;;;;;;;5085531;28;19931;-64
2022/05/27 02:47:09;;;;;;;;;;;;;;;;;;5100941;28;19920;-64
2022/05/27 02:49:35;;;;;;;;;;;;;;;;;;5084991;28;19926;-64
2022/05/27 02:52:01;;;;;;;;;;;;;;;;;;5085073;28;19920;-64
2022/05/27 02:54:27;;;;;;;;;;;;;;;;;;5085180;28;19931;-64
2022/05/27 02:56:53;;;;;;;;;;;;;;;;;;5085152;28;19924;-64
2022/05/27 02:59:19;;;;;;;;;;;;;;;;;;5100351;28;19924;-64
2022/05/27 03:01:47;;;;;;;;;;;;;;;;;;5100816;28;19927;-64
2022/05/27 03:04:13;;;;;;;;;;;;;;;;;;5100509;28;20019;-63
2022/05/27 03:06:39;;;;;;;;;;;;;;;;;;5100535;28;19927;-64
2022/05/27 03:09:05;;;;;;;;;;;;;;;;;;5084514;28;19924;-63
2022/05/27 03:11:31;;;;;;;;;;;;;;;;;;5084757;28;19920;-63
2022/05/27 03:13:56;;;;;;;;;;;;;;;;;;5084455;28;19921;-64
2022/05/27 03:16:23;;;;;;;;;;;;;;;;;;5084953;28;19924;-64
2022/05/27 03:18:49;;;;;;;;;;;;;;;;;;5084751;28;19975;-63
2022/05/27 03:21:15;;;;;;;;;;;;;;;;;;5100314;28;19950;-63
2022/05/27 03:23:41;;;;;;;;;;;;;;;;;;5084863;28;19982;-63
2022/05/27 03:26:07;;;;;;;;;;;;;;;;;;5084793;28;19924;-63
2022/05/27 03:28:33;;;;;;;;;;;;;;;;;;5084621;28;19972;-63
2022/05/27 03:30:59;;;;;;;;;;;;;;;;;;5100152;28;19921;-63
2022/05/27 03:33:25;;;;;;;;;;;;;;;;;;5099920;28;19920;-64
2022/05/27 03:35:51;;;;;;;;;;;;;;;;;;5084698;28;19924;-62
2022/05/27 03:38:17;;;;;;;;;;;;;;;;;;5100198;28;19920;-64
2022/05/27 03:40:43;;;;;;;;;;;;;;;;;;5084621;28;20388;-64
2022/05/27 03:43:09;;;;;;;;;;;;;;;;;;5084467;28;19924;-63
2022/05/27 03:45:35;;;;;;;;;;;;;;;;;;5084503;28;19920;-63
2022/05/27 03:48:01;;;;;;;;;;;;;;;;;;5084522;28;19927;-62
2022/05/27 03:50:27;;;;;;;;;;;;;;;;;;5084567;28;19924;-63
2022/05/27 03:52:53;;;;;;;;;;;;;;;;;;5084549;28;19924;-63
2022/05/27 03:55:19;;;;;;;;;;;;;;;;;;5084393;28;19927;-63
2022/05/27 03:57:45;;;;;;;;;;;;;;;;;;5099983;28;19966;-63
2022/05/27 04:00:11;;;;;;;;;;;;;;;;;;5084342;28;20019;-63
2022/05/27 04:02:37;;;;;;;;;;;;;;;;;;5084251;28;19942;-63
2022/05/27 04:05:03;;;;;;;;;;;;;;;;;;5099628;28;19920;-63
2022/05/27 04:07:29;;;;;;;;;;;;;;;;;;5084263;28;19927;-64
2022/05/27 04:09:55;;;;;;;;;;;;;;;;;;5084016;28;19920;-63
2022/05/27 04:12:21;;;;;;;;;;;;;;;;;;5083971;28;19975;-64
2022/05/27 04:14:47;;;;;;;;;;;;;;;;;;5084312;28;19920;-63
2022/05/27 04:17:30;;;;;;;;;;;;;;;;;;5084092;28;20269;-63
2022/05/27 04:19:56;;;;;;;;;;;;;;;;;;5084656;28;19920;-63
2022/05/27 04:22:22;;;;;;;;;;;;;;;;;;5084267;28;19925;-63
2022/05/27 04:24:48;;;;;;;;;;;;;;;;;;5084430;28;19931;-63
2022/05/27 04:27:14;;;;;;;;;;;;;;;;;;5099852;28;19921;-63
2022/05/27 04:29:40;;;;;;;;;;;;;;;;;;5084450;28;19928;-63
2022/05/27 04:32:06;;;;;;;;;;;;;;;;;;5085771;28;20327;-63
2022/05/27 04:34:32;;;;;;;;;;;;;;;;;;5087973;28;19930;-63
2022/05/27 04:36:59;;;;;;;;;;;;;;;;;;5103463;28;20420;-63
2022/05/27 04:39:25;;;;;;;;;;;;;;;;;;5103483;28;20372;-64
2022/05/27 04:41:51;;;;;;;;;;;;;;;;;;5103167;28;19942;-63
2022/05/27 04:44:17;;;;;;;;;;;;;;;;;;5087275;28;19926;-63
2022/05/27 04:46:45;;;;;;;;;;;;;;;;;;5087642;28;19924;-63
2022/05/27 04:49:50;;;;;;;;;;;;;;;;;;5087829;28;19969;-63
2022/05/27 04:51:57;;;;;;;;;;;;;;;;;;5087671;28;19928;-63
2022/05/27 04:54:23;;;;;;;;;;;;;;;;;;5103517;28;19925;-63
2022/05/27 04:56:49;;;;;;;;;;;;;;;;;;5087659;28;20073;-63
2022/05/27 04:59:15;;;;;;;;;;;;;;;;;;5087494;28;19951;-63
2022/05/27 05:01:41;;;;;;;;;;;;;;;;;;5103029;28;19916;-63
2022/05/27 05:04:07;;;;;;;;;;;;;;;;;;5102776;28;19931;-63
2022/05/27 05:06:33;;;;;;;;;;;;;;;;;;5087350;28;19929;-63
2022/05/27 05:08:59;;;;;;;;;;;;;;;;;;5102929;28;19978;-63
2022/05/27 05:11:25;;;;;;;;;;;;;;;;;;5087333;28;19920;-63
2022/05/27 05:13:51;;;;;;;;;;;;;;;;;;5087125;28;19920;-63
2022/05/27 05:16:17;;;;;;;;;;;;;;;;;;5087308;28;19983;-63
2022/05/27 05:18:43;;;;;;;;;;;;;;;;;;5102399;28;20023;-63
2022/05/27 05:21:09;;;;;;;;;;;;;;;;;;5086921;28;19925;-63
2022/05/27 05:23:35;;;;;;;;;;;;;;;;;;5102343;28;20448;-63
2022/05/27 05:26:01;;;;;;;;;;;;;;;;;;5102229;28;19920;-64
2022/05/27 05:28:27;;;;;;;;;;;;;;;;;;5086862;28;19989;-63
2022/05/27 05:30:53;;;;;;;;;;;;;;;;;;5087036;28;19924;-63
2022/05/27 05:33:19;;;;;;;;;;;;;;;;;;5086588;28;19975;-63
2022/05/27 05:35:46;;;;;;;;;;;;;;;;;;5086703;28;19951;-63
2022/05/27 05:38:12;;;;;;;;;;;;;;;;;;5086821;28;19959;-63
2022/05/27 05:40:38;;;;;;;;;;;;;;;;;;5102068;28;20396;-64
2022/05/27 05:43:04;;;;;;;;;;;;;;;;;;5085157;28;19920;-64
2022/05/27 05:45:30;;;;;;;;;;;;;;;;;;5086758;28;19920;-64
2022/05/27 05:47:56;;;;;;;;;;;;;;;;;;5086611;28;19920;-63
2022/05/27 05:50:22;;;;;;;;;;;;;;;;;;5102215;28;19924;-63
2022/05/27 05:52:48;;;;;;;;;;;;;;;;;;5102142;28;20358;-63
2022/05/27 05:55:14;;;;;;;;;;;;;;;;;;5086448;28;19921;-63
2022/05/27 05:57:41;;;;;;;;;;;;;;;;;;5086096;28;19927;-63
2022/05/27 06:00:07;;;;;;;;;;;;;;;;;;5086429;28;19920;-63
2022/05/27 06:02:33;;;;;;;;;;;;;;;;;;5086361;28;19924;-63
2022/05/27 06:04:59;;;;;;;;;;;;;;;;;;5086121;28;19931;-64
2022/05/27 06:07:25;;;;;;;;;;;;;;;;;;5086099;28;19970;-64
2022/05/27 06:09:51;;;;;;;;;;;;;;;;;;5086193;28;19920;-64
2022/05/27 06:12:22;;;;;;;;;;;;;;;;;;5085897;28;20388;-64
2022/05/27 06:14:48;;;;;;;;;;;;;;;;;;5085932;28;19928;-63
2022/05/27 06:17:14;;;;;;;;;;;;;;;;;;5101516;28;19943;-63
2022/05/27 06:19:40;;;;;;;;;;;;;;;;;;5085893;28;19924;-63
2022/05/27 06:22:07;;;;;;;;;;;;;;;;;;5085816;28;19927;-64
2022/05/27 06:24:33;;;;;;;;;;;;;;;;;;5085803;28;19923;-64
2022/05/27 06:26:59;;;;;;;;;;;;;;;;;;5085547;28;19928;-64
2022/05/27 06:34:54;;;;;;;;;;;;;;;;;;5085586;28;19927;-63
2022/05/27 06:37:21;;;;;;;;;;;;;;;;;;5085176;28;19920;-63
2022/05/27 06:39:47;;;;;;;;;;;;;;;;;;5085797;28;19921;-63
2022/05/27 06:42:14;;;;;;;;;;;;;;;;;;5085630;28;19928;-63
2022/05/27 06:44:40;;;;;;;;;;;;;;;;;;5100815;28;19959;-63
2022/05/27 06:47:06;;;;;;;;;;;;;;;;;;5067612;28;19931;-63
2022/05/27 06:49:32;;;;;;;;;;;;;;;;;;5085430;28;19924;-64
2022/05/27 06:51:58;;;;;;;;;;;;;;;;;;5085336;28;19920;-64
2022/05/27 06:54:24;;;;;;;;;;;;;;;;;;5085122;28;19920;-62
2022/05/27 06:56:52;;;;;;;;;;;;;;;;;;5085304;28;20320;-63
2022/05/27 06:59:18;;;;;;;;;;;;;;;;;;5085095;28;20355;-63
2022/05/27 07:01:44;;;;;;;;;;;;;;;;;;5100759;28;19920;-63
2022/05/27 07:04:10;;;;;;;;;;;;;;;;;;5084807;28;19936;-64
2022/05/27 07:06:41;;;;;;;;;;;;;;;;;;5085428;28;19921;-63
2022/05/27 07:09:07;;;;;;;;;;;;;;;;;;5100525;28;19920;-63
2022/05/27 07:11:33;;;;;;;;;;;;;;;;;;5085058;28;19924;-64
2022/05/27 07:13:59;;;;;;;;;;;;;;;;;;5084943;28;20364;-63
2022/05/27 07:16:27;;;;;;;;;;;;;;;;;;5107353;28;19920;-64
2022/05/27 07:18:53;;;;;;;;;;;;;;;;;;5114210;28;19924;-63
2022/05/27 07:21:19;;;;;;;;;;;;;;;;;;5104485;28;20288;-63
2022/05/27 07:23:45;;;;;;;;;;;;;;;;;;5124589;28;19927;-63
2022/05/27 07:26:11;;;;;;;;;;;;;;;;;;5125222;28;19919;-63
2022/05/27 07:28:37;;;;;;;;;;;;;;;;;;5125629;28;19926;-64
2022/05/27 07:31:03;;;;;;;;;;;;;;;;;;5125797;28;20279;-64
2022/05/27 07:33:29;;;;;;;;;;;;;;;;;;5125419;28;19927;-63
2022/05/27 07:35:55;;;;;;;;;;;;;;;;;;5125490;28;19920;-64
2022/05/27 07:38:22;;;;;;;;;;;;;;;;;;5125453;28;19920;-63
2022/05/27 07:40:48;;;;;;;;;;;;;;;;;;5125619;28;19920;-63
2022/05/27 07:43:14;;;;;;;;;;;;;;;;;;5125431;28;19920;-64
2022/05/27 07:45:40;;;;;;;;;;;;;;;;;;5125433;28;19942;-62
2022/05/27 07:48:06;;;;;;;;;;;;;;;;;;5107162;28;20390;-63
2022/05/27 07:50:32;;;;;;;;;;;;;;;;;;5125213;28;19920;-62
2022/05/27 07:52:58;;;;;;;;;;;;;;;;;;5107127;28;19930;-63
2022/05/27 07:55:24;;;;;;;;;;;;;;;;;;5087186;28;19926;-64
2022/05/27 07:57:50;;;;;;;;;;;;;;;;;;5086335;28;19923;-63
2022/05/27 08:00:16;;;;;;;;;;;;;;;;;;5069752;28;19920;-63
2022/05/27 08:02:42;;;;;;;;;;;;;;;;;;5104949;28;19924;-64
2022/05/27 08:05:08;;;;;;;;;;;;;;;;;;5104822;28;19920;-64
2022/05/27 08:07:34;;;;;;;;;;;;;;;;;;5107449;28;19928;-64
2022/05/27 08:10:00;;;;;;;;;;;;;;;;;;5108687;28;19969;-63
2022/05/27 08:12:26;;;;;;;;;;;;;;;;;;5103845;28;20081;-63
2022/05/27 08:14:52;;;;;;;;;;;;;;;;;;5087822;28;19971;-64
2022/05/27 08:17:18;;;;;;;;;;;;;;;;;;5098534;28;19920;-63
2022/05/27 08:19:44;;;;;;;;;;;;;;;;;;5108348;28;19920;-64
2022/05/27 08:22:10;;;;;;;;;;;;;;;;;;5084760;28;19990;-64
2022/05/27 08:24:36;;;;;;;;;;;;;;;;;;5087051;28;19998;-64
2022/05/27 08:27:02;;;;;;;;;;;;;;;;;;5085238;28;19959;-63
2022/05/27 08:29:28;;;;;;;;;;;;;;;;;;5085029;28;19992;-63
2022/05/27 08:31:54;;;;;;;;;;;;;;;;;;5050692;28;20024;-64
2022/05/27 08:39:49;;;;;;;;;;;;;;;;;;5085167;28;19931;-64
2022/05/27 08:42:15;;;;;;;;;;;;;;;;;;5101055;28;20307;-64
2022/05/27 08:44:42;;;;;;;;;;;;;;;;;;5085071;28;19980;-70
2022/05/27 08:47:08;;;;;;;;;;;;;;;;;;5084762;28;19942;-64
2022/05/27 08:49:34;;;;;;;;;;;;;;;;;;5087456;28;19921;-64
2022/05/27 08:52:00;;;;;;;;;;;;;;;;;;5087091;28;19928;-65
2022/05/27 08:54:26;;;;;;;;;;;;;;;;;;5102409;28;19920;-64
2022/05/27 08:59:38;;;;;;;;;;;;;;;;;;5081354;28;20373;-65
2022/05/27 09:02:04;;;;;;;;;;;;;;;;;;5076512;28;19947;-65
2022/05/27 09:04:30;;;;;;;;;;;;;;;;;;5087132;28;19920;-65
2022/05/27 09:06:56;;;;;;;;;;;;;;;;;;5094245;28;19920;-65
2022/05/27 09:09:22;;;;;;;;;;;;;;;;;;5097907;28;19926;-63
2022/05/27 09:11:48;;;;;;;;;;;;;;;;;;5087389;28;20007;-64
2022/05/27 09:14:14;;;;;;;;;;;;;;;;;;5085126;28;19926;-64
2022/05/27 09:16:40;;;;;;;;;;;;;;;;;;5087433;28;19929;-64
2022/05/27 09:19:06;;;;;;;;;;;;;;;;;;5085809;28;19979;-64
2022/05/27 09:21:32;;;;;;;;;;;;;;;;;;5067832;28;19939;-63
2022/05/27 09:24:00;;;;;;;;;;;;;;;;;;5085211;28;20329;-65
2022/05/27 09:26:26;;;;;;;;;;;;;;;;;;5084456;28;19951;-64
2022/05/27 09:28:52;;;;;;;;;;;;;;;;;;5083260;28;19929;-65
2022/05/27 09:31:18;;;;;;;;;;;;;;;;;;5084892;28;19921;-65
2022/05/27 09:33:44;;;;;;;;;;;;;;;;;;5067656;28;19920;-65
2022/05/27 09:36:10;;;;;;;;;;;;;;;;;;5067319;28;19920;-65
2022/05/27 09:38:36;;;;;;;;;;;;;;;;;;5084255;28;19921;-65
2022/05/27 09:41:02;;;;;;;;;;;;;;;;;;5066447;28;19920;-63
2022/05/27 09:43:28;;;;;;;;;;;;;;;;;;5085445;28;19920;-64
2022/05/27 09:45:55;;;;;;;;;;;;;;;;;;5087471;28;19928;-64
2022/05/27 09:48:20;;;;;;;;;;;;;;;;;;5067269;28;19965;-64
2022/05/27 09:50:46;;;;;;;;;;;;;;;;;;5065982;28;20428;-64
2022/05/27 09:53:12;;;;;;;;;;;;;;;;;;5084925;28;20002;-64
2022/05/27 09:55:38;;;;;;;;;;;;;;;;;;5068309;28;19924;-65
2022/05/27 09:58:04;;;;;;;;;;;;;;;;;;5085030;28;19924;-65
2022/05/27 10:00:30;;;;;;;;;;;;;;;;;;5085156;28;19916;-65
2022/05/27 10:02:56;;;;;;;;;;;;;;;;;;5085517;28;19920;-65
2022/05/27 10:05:22;;;;;;;;;;;;;;;;;;5083340;28;20451;-66
2022/05/27 10:07:48;;;;;;;;;;;;;;;;;;5084520;28;19921;-67
2022/05/27 10:10:14;;;;;;;;;;;;;;;;;;5102668;28;19928;-66
2022/05/27 10:12:40;;;;;;;;;;;;;;;;;;5106203;28;19993;-66
2022/05/27 10:15:06;;;;;;;;;;;;;;;;;;5106382;28;19947;-67
2022/05/27 10:17:36;;;;;;;;;;;;;;;;;;5088416;28;20379;-67
2022/05/27 10:20:02;;;;;;;;;;;;;;;;;;5106239;28;19922;-67
2022/05/27 10:22:28;;;;;;;;;;;;;;;;;;5106395;28;19988;-66
2022/05/27 10:24:54;;;;;;;;;;;;;;;;;;5106256;28;20261;-66
2022/05/27 10:27:23;;;;;;;;;;;;;;;;;;5087927;28;19920;-66
2022/05/27 10:29:49;;;;;;;;;;;;;;;;;;5087295;28;19924;-67
2022/05/27 10:32:15;;;;;;;;;;;;;;;;;;5106163;28;19971;-67
2022/05/27 10:34:41;;;;;;;;;;;;;;;;;;5105812;28;19920;-67
2022/05/27 10:37:07;;;;;;;;;;;;;;;;;;5106183;28;19920;-67
2022/05/27 10:39:33;;;;;;;;;;;;;;;;;;5087982;28;19965;-67
2022/05/27 10:41:59;;;;;;;;;;;;;;;;;;5105954;28;19920;-67
2022/05/27 10:44:25;;;;;;;;;;;;;;;;;;5105661;28;19927;-67
2022/05/27 10:46:51;;;;;;;;;;;;;;;;;;5105977;28;20399;-67
2022/05/27 10:49:17;;;;;;;;;;;;;;;;;;5105868;28;19967;-67
2022/05/27 10:51:43;;;;;;;;;;;;;;;;;;5087560;28;19927;-66
2022/05/27 10:54:09;;;;;;;;;;;;;;;;;;5087548;28;19920;-67
2022/05/27 10:56:35;;;;;;;;;;;;;;;;;;5105594;28;19920;-67
2022/05/27 11:02:04;;;;;;;;;;;;;;;;;;5105801;28;19926;-66
2022/05/27 11:04:30;;;;;;;;;;;;;;;;;;5105402;28;19927;-67
2022/05/27 11:06:56;;;;;;;;;;;;;;;;;;5105661;28;20390;-67
2022/05/27 11:09:22;;;;;;;;;;;;;;;;;;5105368;28;19924;-68
2022/05/27 11:11:48;;;;;;;;;;;;;;;;;;5105652;28;19920;-68
2022/05/27 11:16:59;;;;;;;;;;;;;;;;;;5105541;28;19973;-68
2022/05/27 11:19:25;;;;;;;;;;;;;;;;;;5105455;28;19924;-68
2022/05/27 11:21:51;;;;;;;;;;;;;;;;;;5105251;28;20292;-68
2022/05/27 11:24:17;;;;;;;;;;;;;;;;;;5105369;28;19920;-68
2022/05/27 11:26:43;;;;;;;;;;;;;;;;;;5087150;28;19923;-68
2022/05/27 11:29:09;;;;;;;;;;;;;;;;;;5105394;28;19932;-67
2022/05/27 11:31:35;;;;;;;;;;;;;;;;;;5105321;28;19920;-67
2022/05/27 11:34:01;;;;;;;;;;;;;;;;;;5105340;28;19931;-67
2022/05/27 11:36:27;;;;;;;;;;;;;;;;;;5105130;28;19924;-67
2022/05/27 11:38:53;;;;;;;;;;;;;;;;;;5086981;28;19920;-67
2022/05/27 11:41:19;;;;;;;;;;;;;;;;;;5105688;28;19920;-67
2022/05/27 11:43:45;;;;;;;;;;;;;;;;;;5109421;28;19920;-67
2022/05/27 11:46:11;;;;;;;;;;;;;;;;;;5091236;28;19920;-66
2022/05/27 11:48:37;;;;;;;;;;;;;;;;;;5109420;28;19920;-68
2022/05/27 11:51:05;;;;;;;;;;;;;;;;;;5091102;28;19924;-67
2022/05/27 11:53:31;;;;;;;;;;;;;;;;;;5109375;28;19920;-68
2022/05/27 11:55:57;;;;;;;;;;;;;;;;;;5109228;28;19942;-68
2022/05/27 11:58:23;;;;;;;;;;;;;;;;;;5109180;28;19942;-67
2022/05/27 12:00:49;;;;;;;;;;;;;;;;;;5109105;28;19920;-68
2022/05/27 12:03:15;;;;;;;;;;;;;;;;;;5108934;28;19920;-68
2022/05/27 12:05:41;;;;;;;;;;;;;;;;;;5090489;28;19919;-68
2022/05/27 12:08:07;;;;;;;;;;;;;;;;;;5109061;28;19927;-67
2022/05/27 12:10:34;;;;;;;;;;;;;;;;;;5108901;28;19924;-67
2022/05/27 12:13:00;;;;;;;;;;;;;;;;;;5109013;28;19924;-68
2022/05/27 12:15:26;;;;;;;;;;;;;;;;;;5108795;28;20439;-67
2022/05/27 12:17:52;;;;;;;;;;;;;;;;;;5090578;28;20009;-67
2022/05/27 12:20:18;;;;;;;;;;;;;;;;;;5090511;28;20006;-67
2022/05/27 12:22:44;;;;;;;;;;;;;;;;;;5090400;28;19924;-67
2022/05/27 12:25:10;;;;;;;;;;;;;;;;;;5108672;28;19936;-67
2022/05/27 12:27:36;;;;;;;;;;;;;;;;;;5108543;28;19924;-67
2022/05/27 12:30:02;;;;;;;;;;;;;;;;;;5108450;28;19920;-67
2022/05/27 12:32:28;;;;;;;;;;;;;;;;;;5108538;28;19915;-67
2022/05/27 12:34:54;;;;;;;;;;;;;;;;;;5108209;28;19927;-67
2022/05/27 12:37:21;;;;;;;;;;;;;;;;;;5090209;28;19955;-67
2022/05/27 12:39:47;;;;;;;;;;;;;;;;;;5108368;28;19928;-68
2022/05/27 12:42:13;;;;;;;;;;;;;;;;;;5108197;28;19987;-67
2022/05/27 12:44:39;;;;;;;;;;;;;;;;;;5107997;28;19927;-67
2022/05/27 12:47:05;;;;;;;;;;;;;;;;;;5089925;28;19927;-67
2022/05/27 12:49:31;;;;;;;;;;;;;;;;;;5108318;28;19920;-68
2022/05/27 12:51:57;;;;;;;;;;;;;;;;;;5107919;28;19927;-67
2022/05/27 12:54:23;;;;;;;;;;;;;;;;;;5089639;28;19930;-67
2022/05/27 13:02:19;;;;;;;;;;;;;;;;;;5107786;28;19927;-67
2022/05/27 13:04:45;;;;;;;;;;;;;;;;;;5107713;28;19924;-66
2022/05/27 13:07:11;;;;;;;;;;;;;;;;;;5089817;28;20283;-67
2022/05/27 13:09:37;;;;;;;;;;;;;;;;;;5107525;28;19931;-67
2022/05/27 13:12:03;;;;;;;;;;;;;;;;;;5089498;28;19930;-67
2022/05/27 13:14:29;;;;;;;;;;;;;;;;;;5107536;28;19920;-67
2022/05/27 13:16:56;;;;;;;;;;;;;;;;;;5107512;28;19959;-67
2022/05/27 13:19:22;;;;;;;;;;;;;;;;;;5089361;28;20015;-66
2022/05/27 13:21:48;;;;;;;;;;;;;;;;;;5107680;28;19958;-67
2022/05/27 13:24:14;;;;;;;;;;;;;;;;;;5107500;28;19919;-67
2022/05/27 13:26:40;;;;;;;;;;;;;;;;;;5089193;28;19924;-67
2022/05/27 13:29:06;;;;;;;;;;;;;;;;;;5089106;28;19927;-67
2022/05/27 13:31:32;;;;;;;;;;;;;;;;;;5107482;28;19967;-66
2022/05/27 13:33:58;;;;;;;;;;;;;;;;;;5107336;28;19920;-67
2022/05/27 13:36:24;;;;;;;;;;;;;;;;;;5107405;28;20291;-67
2022/05/27 13:38:50;;;;;;;;;;;;;;;;;;5107255;28;19920;-66
2022/05/27 13:41:17;;;;;;;;;;;;;;;;;;5089069;28;20489;-67
2022/05/27 13:43:47;;;;;;;;;;;;;;;;;;5107166;28;19982;-67
2022/05/27 13:46:13;;;;;;;;;;;;;;;;;;5107317;28;20306;-67
2022/05/27 13:48:39;;;;;;;;;;;;;;;;;;5106988;28;19941;-67
2022/05/27 13:51:07;;;;;;;;;;;;;;;;;;5106906;28;19919;-67
2022/05/27 13:53:33;;;;;;;;;;;;;;;;;;5106920;28;20003;-66
2022/05/27 13:55:59;;;;;;;;;;;;;;;;;;5106699;28;19981;-66
2022/05/27 13:58:26;;;;;;;;;;;;;;;;;;5106609;28;19920;-66
2022/05/27 14:00:52;;;;;;;;;;;;;;;;;;5088334;28;19927;-66
2022/05/27 14:03:18;;;;;;;;;;;;;;;;;;5088353;28;19920;-67
2022/05/27 14:05:44;;;;;;;;;;;;;;;;;;5105678;28;19920;-66
2022/05/27 14:08:10;;;;;;;;;;;;;;;;;;5088686;28;19923;-66
2022/05/27 14:10:36;;;;;;;;;;;;;;;;;;5088121;28;19943;-67
2022/05/27 14:13:02;;;;;;;;;;;;;;;;;;5106362;28;19927;-66
2022/05/27 14:15:28;;;;;;;;;;;;;;;;;;5106282;28;19920;-68
2022/05/27 14:17:54;;;;;;;;;;;;;;;;;;5106657;28;19943;-66
2022/05/27 14:20:20;;;;;;;;;;;;;;;;;;5106379;28;19920;-66
2022/05/27 14:22:46;;;;;;;;;;;;;;;;;;5106492;28;19982;-66
2022/05/27 14:25:12;;;;;;;;;;;;;;;;;;5106317;28;19975;-66
2022/05/27 14:27:38;;;;;;;;;;;;;;;;;;5106257;28;19924;-66
2022/05/27 14:30:04;;;;;;;;;;;;;;;;;;5087670;28;20004;-67
2022/05/27 14:32:30;;;;;;;;;;;;;;;;;;5087792;28;19920;-66
2022/05/27 14:34:56;;;;;;;;;;;;;;;;;;5106019;28;19926;-66
2022/05/27 14:37:22;;;;;;;;;;;;;;;;;;5106192;28;19941;-66
2022/05/27 14:39:48;;;;;;;;;;;;;;;;;;5105916;28;19920;-67
2022/05/27 14:42:14;;;;;;;;;;;;;;;;;;5106026;28;19920;-67
2022/05/27 14:44:40;;;;;;;;;;;;;;;;;;5105742;28;20082;-66
2022/05/27 14:47:06;;;;;;;;;;;;;;;;;;5106029;28;19920;-67
2022/05/27 14:49:32;;;;;;;;;;;;;;;;;;5105739;28;19976;-66
2022/05/27 14:51:59;;;;;;;;;;;;;;;;;;5105858;28;19920;-67
2022/05/27 14:54:25;;;;;;;;;;;;;;;;;;5105872;28;20014;-67
2022/05/27 14:56:51;;;;;;;;;;;;;;;;;;5105783;28;19920;-67
2022/05/27 14:59:17;;;;;;;;;;;;;;;;;;5105440;28;19916;-67
2022/05/27 15:01:43;;;;;;;;;;;;;;;;;;5087371;28;19924;-67
2022/05/27 15:04:09;;;;;;;;;;;;;;;;;;5087327;28;19959;-67
2022/05/27 15:06:35;;;;;;;;;;;;;;;;;;5087310;28;20053;-67
2022/05/27 15:09:01;;;;;;;;;;;;;;;;;;5087504;28;20025;-66
2022/05/27 15:11:28;;;;;;;;;;;;;;;;;;5087334;28;20399;-66
2022/05/27 15:13:54;;;;;;;;;;;;;;;;;;5105236;28;19971;-66
2022/05/27 15:16:20;;;;;;;;;;;;;;;;;;5105239;28;20272;-66
2022/05/27 15:18:46;;;;;;;;;;;;;;;;;;5105419;28;19920;-66
2022/05/27 15:21:12;;;;;;;;;;;;;;;;;;5105503;28;19920;-66
2022/05/27 15:23:38;;;;;;;;;;;;;;;;;;5087245;28;19927;-66
2022/05/27 15:34:18;;;;;;;;;;;;;;;;;;5087025;28;19943;-67
2022/05/27 15:36:44;;;;;;;;;;;;;;;;;;5104977;28;19920;-66
2022/05/27 15:39:10;;;;;;;;;;;;;;;;;;5105065;28;20457;-67
2022/05/27 15:41:36;;;;;;;;;;;;;;;;;;5087015;28;19920;-66
2022/05/27 15:44:03;;;;;;;;;;;;;;;;;;5104923;28;19927;-66
2022/05/27 15:46:29;;;;;;;;;;;;;;;;;;5105077;28;19920;-66
2022/05/27 15:48:55;;;;;;;;;;;;;;;;;;5086967;28;20011;-67
2022/05/27 15:51:21;;;;;;;;;;;;;;;;;;5105083;28;19920;-67
2022/05/27 15:53:47;;;;;;;;;;;;;;;;;;5105035;28;19924;-67
2022/05/27 15:56:13;;;;;;;;;;;;;;;;;;5104922;28;19924;-67
2022/05/27 15:58:41;;;;;;;;;;;;;;;;;;5086768;28;19930;-66
2022/05/27 16:01:07;;;;;;;;;;;;;;;;;;5104984;28;19919;-67
2022/05/27 16:03:33;;;;;;;;;;;;;;;;;;5104836;28;19923;-67
2022/05/27 16:06:00;;;;;;;;;;;;;;;;;;5086566;28;19935;-67
2022/05/27 16:08:26;;;;;;;;;;;;;;;;;;5105083;28;19920;-67
2022/05/27 16:10:52;;;;;;;;;;;;;;;;;;5104676;28;19983;-67
2022/05/27 16:13:18;;;;;;;;;;;;;;;;;;5104722;28;19920;-67
2022/05/27 16:18:29;;;;;;;;;;;;;;;;;;5104669;28;20050;-66
2022/05/27 16:20:55;;;;;;;;;;;;;;;;;;5104774;28;19920;-65
2022/05/27 16:23:21;;;;;;;;;;;;;;;;;;5104743;28;19920;-66
2022/05/27 16:25:47;;;;;;;;;;;;;;;;;;5104663;28;19920;-66
2022/05/27 16:28:13;;;;;;;;;;;;;;;;;;5106379;28;19927;-66
2022/05/27 16:30:40;;;;;;;;;;;;;;;;;;5108525;28;19927;-67
2022/05/27 16:33:06;;;;;;;;;;;;;;;;;;5108553;28;19920;-66
2022/05/27 16:35:32;;;;;;;;;;;;;;;;;;5090253;28;19924;-66
2022/05/27 16:37:58;;;;;;;;;;;;;;;;;;5090202;28;19920;-66
2022/05/27 16:40:24;;;;;;;;;;;;;;;;;;5108244;28;19920;-66
2022/05/27 16:42:51;;;;;;;;;;;;;;;;;;5108236;28;19919;-66
2022/05/27 16:45:16;;;;;;;;;;;;;;;;;;5089815;28;20053;-66
2022/05/27 16:47:43;;;;;;;;;;;;;;;;;;5090030;28;19924;-66
2022/05/27 16:50:09;;;;;;;;;;;;;;;;;;5107994;28;20007;-66
2022/05/27 16:52:35;;;;;;;;;;;;;;;;;;5090036;28;19920;-66
2022/05/27 16:55:01;;;;;;;;;;;;;;;;;;5108114;28;19923;-66
2022/05/27 16:57:27;;;;;;;;;;;;;;;;;;5108109;28;20018;-66
2022/05/27 16:59:53;;;;;;;;;;;;;;;;;;5107968;28;19924;-67
2022/05/27 17:02:22;;;;;;;;;;;;;;;;;;5107840;28;19927;-66
2022/05/27 17:04:48;;;;;;;;;;;;;;;;;;5089489;28;19946;-67
2022/05/27 17:07:15;;;;;;;;;;;;;;;;;;5107934;28;19963;-66
2022/05/27 17:09:41;;;;;;;;;;;;;;;;;;5089223;28;19951;-66
2022/05/27 17:12:07;;;;;;;;;;;;;;;;;;5107685;28;19950;-66
2022/05/27 17:14:33;;;;;;;;;;;;;;;;;;5089450;28;19923;-66
2022/05/27 17:16:59;;;;;;;;;;;;;;;;;;5107623;28;19951;-65
2022/05/27 17:19:25;;;;;;;;;;;;;;;;;;5107531;28;19927;-66